sensor_id;sensor_type;location;lat;lon;timestamp;temperature;humidity
63537;DHT22;49686;51.880;5.632;2024-02-14T00:00:48;8.40;99.90
63537;DHT22;49686;51.880;5.632;2024-02-14T00:03:15;8.40;99.90
63537;DHT22;49686;51.880;5.632;2024-02-14T00:05:41;8.50;99.90
63537;DHT22;49686;51.880;5.632;2024-02-14T00:08:08;8.40;99.90
63537;DHT22;49686;51.880;5.632;2024-02-14T00:10:36;8.50;99.90
63537;DHT22;49686;51.880;5.632;2024-02-14T00:13:03;8.50;99.90
63537;DHT22;49686;51.880;5.632;2024-02-14T00:15:30;8.50;99.90
63537;DHT22;49686;51.880;5.632;2024-02-14T00:17:56;8.50;99.90
63537;DHT22;49686;51.880;5.632;2024-02-14T00:20:23;8.50;99.90
63537;DHT22;49686;51.880;5.632;2024-02-14T00:22:50;8.50;99.90
63537;DHT22;49686;51.880;5.632;2024-02-14T00:25:16;8.50;99.90
63537;DHT22;49686;51.880;5.632;2024-02-14T00:27:47;8.60;99.90
63537;DHT22;49686;51.880;5.632;2024-02-14T00:30:14;8.60;99.90
63537;DHT22;49686;51.880;5.632;2024-02-14T00:32:41;8.60;99.90
63537;DHT22;49686;51.880;5.632;2024-02-14T00:35:08;8.60;99.90
63537;DHT22;49686;51.880;5.632;2024-02-14T00:37:35;8.60;99.90
63537;DHT22;49686;51.880;5.632;2024-02-14T00:40:04;8.60;99.90
63537;DHT22;49686;51.880;5.632;2024-02-14T00:42:31;8.60;99.90
63537;DHT22;49686;51.880;5.632;2024-02-14T00:44:59;8.70;99.90
63537;DHT22;49686;51.880;5.632;2024-02-14T00:47:26;8.70;99.90
63537;DHT22;49686;51.880;5.632;2024-02-14T00:49:53;8.70;99.90
63537;DHT22;49686;51.880;5.632;2024-02-14T00:52:19;8.70;99.90
63537;DHT22;49686;51.880;5.632;2024-02-14T00:54:46;8.70;99.90
63537;DHT22;49686;51.880;5.632;2024-02-14T00:57:13;8.70;99.90
63537;DHT22;49686;51.880;5.632;2024-02-14T00:59:40;8.70;99.90
63537;DHT22;49686;51.880;5.632;2024-02-14T01:02:08;8.70;99.90
63537;DHT22;49686;51.880;5.632;2024-02-14T01:04:34;8.80;99.90
63537;DHT22;49686;51.880;5.632;2024-02-14T01:07:01;8.80;99.90
63537;DHT22;49686;51.880;5.632;2024-02-14T01:09:28;8.90;99.90
63537;DHT22;49686;51.880;5.632;2024-02-14T01:11:55;8.90;99.90
63537;DHT22;49686;51.880;5.632;2024-02-14T01:14:24;9.00;99.90
63537;DHT22;49686;51.880;5.632;2024-02-14T01:16:52;9.00;99.90
63537;DHT22;49686;51.880;5.632;2024-02-14T01:19:20;9.00;99.90
63537;DHT22;49686;51.880;5.632;2024-02-14T01:21:48;9.00;99.90
63537;DHT22;49686;51.880;5.632;2024-02-14T01:24:14;9.10;99.90
63537;DHT22;49686;51.880;5.632;2024-02-14T01:26:41;9.10;99.90
63537;DHT22;49686;51.880;5.632;2024-02-14T01:29:08;9.20;99.90
63537;DHT22;49686;51.880;5.632;2024-02-14T01:31:35;9.20;99.90
63537;DHT22;49686;51.880;5.632;2024-02-14T01:34:01;9.20;99.90
63537;DHT22;49686;51.880;5.632;2024-02-14T01:36:30;9.30;99.90
63537;DHT22;49686;51.880;5.632;2024-02-14T01:38:57;9.30;99.90
63537;DHT22;49686;51.880;5.632;2024-02-14T01:41:23;9.30;99.90
63537;DHT22;49686;51.880;5.632;2024-02-14T01:43:50;9.30;99.90
63537;DHT22;49686;51.880;5.632;2024-02-14T01:46:17;9.30;99.90
63537;DHT22;49686;51.880;5.632;2024-02-14T01:48:44;9.40;99.90
63537;DHT22;49686;51.880;5.632;2024-02-14T01:51:11;9.40;99.90
63537;DHT22;49686;51.880;5.632;2024-02-14T01:53:40;9.40;99.90
63537;DHT22;49686;51.880;5.632;2024-02-14T01:56:08;9.40;99.90
63537;DHT22;49686;51.880;5.632;2024-02-14T01:58:35;9.40;99.90
63537;DHT22;49686;51.880;5.632;2024-02-14T02:01:01;9.40;99.90
63537;DHT22;49686;51.880;5.632;2024-02-14T02:03:28;9.50;99.90
63537;DHT22;49686;51.880;5.632;2024-02-14T02:05:55;9.50;99.90
63537;DHT22;49686;51.880;5.632;2024-02-14T02:08:22;9.50;99.90
63537;DHT22;49686;51.880;5.632;2024-02-14T02:10:50;9.50;99.90
63537;DHT22;49686;51.880;5.632;2024-02-14T02:13:17;9.50;99.90
63537;DHT22;49686;51.880;5.632;2024-02-14T02:15:44;9.50;99.90
63537;DHT22;49686;51.880;5.632;2024-02-14T02:18:10;9.50;99.90
63537;DHT22;49686;51.880;5.632;2024-02-14T02:20:37;9.50;99.90
63537;DHT22;49686;51.880;5.632;2024-02-14T02:23:05;9.60;99.90
63537;DHT22;49686;51.880;5.632;2024-02-14T02:25:32;9.60;99.90
63537;DHT22;49686;51.880;5.632;2024-02-14T02:27:59;9.60;99.90
63537;DHT22;49686;51.880;5.632;2024-02-14T02:30:25;9.60;99.90
63537;DHT22;49686;51.880;5.632;2024-02-14T02:32:52;9.60;99.90
63537;DHT22;49686;51.880;5.632;2024-02-14T02:35:19;9.60;99.90
63537;DHT22;49686;51.880;5.632;2024-02-14T02:37:46;9.60;99.90
63537;DHT22;49686;51.880;5.632;2024-02-14T02:40:14;9.60;99.90
63537;DHT22;49686;51.880;5.632;2024-02-14T02:42:41;9.50;99.90
63537;DHT22;49686;51.880;5.632;2024-02-14T02:45:07;9.50;99.90
63537;DHT22;49686;51.880;5.632;2024-02-14T02:47:34;9.50;99.90
63537;DHT22;49686;51.880;5.632;2024-02-14T02:50:01;9.60;99.90
63537;DHT22;49686;51.880;5.632;2024-02-14T02:52:28;9.60;99.90
63537;DHT22;49686;51.880;5.632;2024-02-14T02:54:54;9.60;99.90
63537;DHT22;49686;51.880;5.632;2024-02-14T02:57:23;9.60;99.90
63537;DHT22;49686;51.880;5.632;2024-02-14T02:59:49;9.70;99.90
63537;DHT22;49686;51.880;5.632;2024-02-14T03:02:16;9.60;99.90
63537;DHT22;49686;51.880;5.632;2024-02-14T03:04:43;9.60;99.90
63537;DHT22;49686;51.880;5.632;2024-02-14T03:07:18;9.60;99.90
63537;DHT22;49686;51.880;5.632;2024-02-14T03:09:45;9.60;99.90
63537;DHT22;49686;51.880;5.632;2024-02-14T03:12:12;9.60;99.90
63537;DHT22;49686;51.880;5.632;2024-02-14T03:14:40;9.60;99.90
63537;DHT22;49686;51.880;5.632;2024-02-14T03:17:06;9.60;99.90
63537;DHT22;49686;51.880;5.632;2024-02-14T03:19:33;9.70;99.90
63537;DHT22;49686;51.880;5.632;2024-02-14T03:22:00;9.80;99.90
63537;DHT22;49686;51.880;5.632;2024-02-14T03:24:27;9.80;99.90
63537;DHT22;49686;51.880;5.632;2024-02-14T03:26:53;9.90;99.90
63537;DHT22;49686;51.880;5.632;2024-02-14T03:29:23;9.90;99.90
63537;DHT22;49686;51.880;5.632;2024-02-14T03:31:51;10.00;99.90
63537;DHT22;49686;51.880;5.632;2024-02-14T03:34:18;10.00;99.90
63537;DHT22;49686;51.880;5.632;2024-02-14T03:36:45;10.10;99.90
63537;DHT22;49686;51.880;5.632;2024-02-14T03:39:11;10.10;99.90
63537;DHT22;49686;51.880;5.632;2024-02-14T03:41:38;10.10;99.90
63537;DHT22;49686;51.880;5.632;2024-02-14T03:44:05;10.10;99.90
63537;DHT22;49686;51.880;5.632;2024-02-14T03:46:31;10.10;99.90
63537;DHT22;49686;51.880;5.632;2024-02-14T03:48:59;10.10;99.90
63537;DHT22;49686;51.880;5.632;2024-02-14T03:51:27;10.10;99.90
63537;DHT22;49686;51.880;5.632;2024-02-14T03:53:53;10.10;99.90
63537;DHT22;49686;51.880;5.632;2024-02-14T03:56:20;10.10;99.90
63537;DHT22;49686;51.880;5.632;2024-02-14T03:58:47;10.20;99.90
63537;DHT22;49686;51.880;5.632;2024-02-14T04:01:14;10.20;99.90
63537;DHT22;49686;51.880;5.632;2024-02-14T04:03:41;10.20;99.90
63537;DHT22;49686;51.880;5.632;2024-02-14T04:06:09;10.20;99.90
63537;DHT22;49686;51.880;5.632;2024-02-14T04:08:36;10.20;99.90
63537;DHT22;49686;51.880;5.632;2024-02-14T04:11:03;10.20;99.90
63537;DHT22;49686;51.880;5.632;2024-02-14T04:13:29;10.20;99.90
63537;DHT22;49686;51.880;5.632;2024-02-14T04:15:56;10.30;99.90
63537;DHT22;49686;51.880;5.632;2024-02-14T04:18:24;10.20;99.90
63537;DHT22;49686;51.880;5.632;2024-02-14T04:20:51;10.20;99.90
63537;DHT22;49686;51.880;5.632;2024-02-14T04:23:19;10.20;99.90
63537;DHT22;49686;51.880;5.632;2024-02-14T04:25:46;10.20;99.90
63537;DHT22;49686;51.880;5.632;2024-02-14T04:28:12;10.20;99.90
63537;DHT22;49686;51.880;5.632;2024-02-14T04:30:39;10.20;99.90
63537;DHT22;49686;51.880;5.632;2024-02-14T04:33:06;10.20;99.90
63537;DHT22;49686;51.880;5.632;2024-02-14T04:35:39;10.20;99.90
63537;DHT22;49686;51.880;5.632;2024-02-14T04:38:06;10.20;99.90
63537;DHT22;49686;51.880;5.632;2024-02-14T04:40:34;10.30;99.90
63537;DHT22;49686;51.880;5.632;2024-02-14T04:43:02;10.30;99.90
63537;DHT22;49686;51.880;5.632;2024-02-14T04:45:28;10.30;99.90
63537;DHT22;49686;51.880;5.632;2024-02-14T04:47:55;10.30;99.90
63537;DHT22;49686;51.880;5.632;2024-02-14T04:50:22;10.30;99.90
63537;DHT22;49686;51.880;5.632;2024-02-14T04:52:48;10.30;99.90
63537;DHT22;49686;51.880;5.632;2024-02-14T04:55:15;10.30;99.90
63537;DHT22;49686;51.880;5.632;2024-02-14T04:57:43;10.30;99.90
63537;DHT22;49686;51.880;5.632;2024-02-14T05:00:10;10.30;99.90
63537;DHT22;49686;51.880;5.632;2024-02-14T05:02:37;10.30;99.90
63537;DHT22;49686;51.880;5.632;2024-02-14T05:05:04;10.20;99.90
63537;DHT22;49686;51.880;5.632;2024-02-14T05:07:31;10.20;99.90
63537;DHT22;49686;51.880;5.632;2024-02-14T05:09:58;10.20;99.90
63537;DHT22;49686;51.880;5.632;2024-02-14T05:12:25;10.20;99.90
63537;DHT22;49686;51.880;5.632;2024-02-14T05:14:53;10.20;99.90
63537;DHT22;49686;51.880;5.632;2024-02-14T05:17:20;10.20;99.90
63537;DHT22;49686;51.880;5.632;2024-02-14T05:19:47;10.20;99.90
63537;DHT22;49686;51.880;5.632;2024-02-14T05:22:13;10.20;99.90
63537;DHT22;49686;51.880;5.632;2024-02-14T05:24:40;10.20;99.90
63537;DHT22;49686;51.880;5.632;2024-02-14T05:27:08;10.20;99.90
63537;DHT22;49686;51.880;5.632;2024-02-14T05:29:35;10.20;99.90
63537;DHT22;49686;51.880;5.632;2024-02-14T05:32:04;10.20;99.90
63537;DHT22;49686;51.880;5.632;2024-02-14T05:34:31;10.20;99.90
63537;DHT22;49686;51.880;5.632;2024-02-14T05:36:58;10.20;99.90
63537;DHT22;49686;51.880;5.632;2024-02-14T05:39:25;10.20;99.90
63537;DHT22;49686;51.880;5.632;2024-02-14T05:41:51;10.20;99.90
63537;DHT22;49686;51.880;5.632;2024-02-14T05:44:18;10.20;99.90
63537;DHT22;49686;51.880;5.632;2024-02-14T05:46:45;10.20;99.90
63537;DHT22;49686;51.880;5.632;2024-02-14T05:49:13;10.20;99.90
63537;DHT22;49686;51.880;5.632;2024-02-14T05:51:40;10.20;99.90
63537;DHT22;49686;51.880;5.632;2024-02-14T05:54:07;10.20;99.90
63537;DHT22;49686;51.880;5.632;2024-02-14T05:56:33;10.20;99.90
63537;DHT22;49686;51.880;5.632;2024-02-14T05:59:00;10.30;99.90
63537;DHT22;49686;51.880;5.632;2024-02-14T06:01:27;10.30;99.90
63537;DHT22;49686;51.880;5.632;2024-02-14T06:03:53;10.20;99.90
63537;DHT22;49686;51.880;5.632;2024-02-14T06:06:21;10.30;99.90
63537;DHT22;49686;51.880;5.632;2024-02-14T06:08:48;10.20;99.90
63537;DHT22;49686;51.880;5.632;2024-02-14T06:11:15;10.20;99.90
63537;DHT22;49686;51.880;5.632;2024-02-14T06:13:42;10.20;99.90
63537;DHT22;49686;51.880;5.632;2024-02-14T06:16:11;10.20;99.90
63537;DHT22;49686;51.880;5.632;2024-02-14T06:18:37;10.20;99.90
63537;DHT22;49686;51.880;5.632;2024-02-14T06:21:04;10.20;99.90
63537;DHT22;49686;51.880;5.632;2024-02-14T06:23:32;10.20;99.90
63537;DHT22;49686;51.880;5.632;2024-02-14T06:25:59;10.20;99.90
63537;DHT22;49686;51.880;5.632;2024-02-14T06:28:26;10.20;99.90
63537;DHT22;49686;51.880;5.632;2024-02-14T06:30:52;10.20;99.90
63537;DHT22;49686;51.880;5.632;2024-02-14T06:33:19;10.20;99.90
63537;DHT22;49686;51.880;5.632;2024-02-14T06:35:46;10.20;99.90
63537;DHT22;49686;51.880;5.632;2024-02-14T06:38:13;10.20;99.90
63537;DHT22;49686;51.880;5.632;2024-02-14T06:40:41;10.20;99.90
63537;DHT22;49686;51.880;5.632;2024-02-14T06:43:08;10.20;99.90
63537;DHT22;49686;51.880;5.632;2024-02-14T06:45:34;10.20;99.90
63537;DHT22;49686;51.880;5.632;2024-02-14T06:48:01;10.30;99.90
63537;DHT22;49686;51.880;5.632;2024-02-14T06:50:28;10.30;99.90
63537;DHT22;49686;51.880;5.632;2024-02-14T06:52:54;10.30;99.90
63537;DHT22;49686;51.880;5.632;2024-02-14T06:55:21;10.30;99.90
63537;DHT22;49686;51.880;5.632;2024-02-14T06:57:49;10.30;99.90
63537;DHT22;49686;51.880;5.632;2024-02-14T07:00:16;10.30;99.90
63537;DHT22;49686;51.880;5.632;2024-02-14T07:02:43;10.40;99.90
63537;DHT22;49686;51.880;5.632;2024-02-14T07:05:10;10.30;99.90
63537;DHT22;49686;51.880;5.632;2024-02-14T07:07:37;10.40;99.90
63537;DHT22;49686;51.880;5.632;2024-02-14T07:10:04;10.40;99.90
63537;DHT22;49686;51.880;5.632;2024-02-14T07:12:31;10.40;99.90
63537;DHT22;49686;51.880;5.632;2024-02-14T07:14:58;10.40;99.90
63537;DHT22;49686;51.880;5.632;2024-02-14T07:17:25;10.40;99.90
63537;DHT22;49686;51.880;5.632;2024-02-14T07:19:52;10.40;99.90
63537;DHT22;49686;51.880;5.632;2024-02-14T07:22:19;10.50;99.90
63537;DHT22;49686;51.880;5.632;2024-02-14T07:24:46;10.50;99.90
63537;DHT22;49686;51.880;5.632;2024-02-14T07:27:13;10.50;99.90
63537;DHT22;49686;51.880;5.632;2024-02-14T07:29:40;10.50;99.90
63537;DHT22;49686;51.880;5.632;2024-02-14T07:32:08;10.50;99.90
63537;DHT22;49686;51.880;5.632;2024-02-14T07:34:37;10.60;99.90
63537;DHT22;49686;51.880;5.632;2024-02-14T07:37:04;10.60;99.90
63537;DHT22;49686;51.880;5.632;2024-02-14T07:39:31;10.60;99.90
63537;DHT22;49686;51.880;5.632;2024-02-14T07:41:57;10.60;99.90
63537;DHT22;49686;51.880;5.632;2024-02-14T07:44:24;10.60;99.90
63537;DHT22;49686;51.880;5.632;2024-02-14T07:46:51;10.60;99.90
63537;DHT22;49686;51.880;5.632;2024-02-14T07:49:19;10.70;99.90
63537;DHT22;49686;51.880;5.632;2024-02-14T07:51:46;10.60;99.90
63537;DHT22;49686;51.880;5.632;2024-02-14T07:54:13;10.70;99.90
63537;DHT22;49686;51.880;5.632;2024-02-14T07:56:40;10.70;99.90
63537;DHT22;49686;51.880;5.632;2024-02-14T07:59:06;10.70;99.90
63537;DHT22;49686;51.880;5.632;2024-02-14T08:01:36;10.70;99.90
63537;DHT22;49686;51.880;5.632;2024-02-14T08:04:03;10.70;99.90
63537;DHT22;49686;51.880;5.632;2024-02-14T08:06:31;10.70;99.90
63537;DHT22;49686;51.880;5.632;2024-02-14T08:08:58;10.70;99.90
63537;DHT22;49686;51.880;5.632;2024-02-14T08:11:25;10.70;99.90
63537;DHT22;49686;51.880;5.632;2024-02-14T08:13:52;10.70;99.90
63537;DHT22;49686;51.880;5.632;2024-02-14T08:16:18;10.70;99.90
63537;DHT22;49686;51.880;5.632;2024-02-14T08:18:45;10.70;99.90
63537;DHT22;49686;51.880;5.632;2024-02-14T08:21:12;10.70;99.90
63537;DHT22;49686;51.880;5.632;2024-02-14T08:23:42;10.70;99.90
63537;DHT22;49686;51.880;5.632;2024-02-14T08:26:09;10.60;99.90
63537;DHT22;49686;51.880;5.632;2024-02-14T08:28:35;10.60;99.90
63537;DHT22;49686;51.880;5.632;2024-02-14T08:31:02;10.60;99.90
63537;DHT22;49686;51.880;5.632;2024-02-14T08:33:29;10.60;99.90
63537;DHT22;49686;51.880;5.632;2024-02-14T08:35:56;10.70;99.90
63537;DHT22;49686;51.880;5.632;2024-02-14T08:38:23;10.70;99.90
63537;DHT22;49686;51.880;5.632;2024-02-14T08:40:51;10.70;99.90
63537;DHT22;49686;51.880;5.632;2024-02-14T08:43:17;10.70;99.90
63537;DHT22;49686;51.880;5.632;2024-02-14T08:45:44;10.70;99.90
63537;DHT22;49686;51.880;5.632;2024-02-14T08:48:11;10.70;99.90
63537;DHT22;49686;51.880;5.632;2024-02-14T08:50:38;10.70;99.90
63537;DHT22;49686;51.880;5.632;2024-02-14T08:53:05;10.70;99.90
63537;DHT22;49686;51.880;5.632;2024-02-14T08:55:31;10.70;99.90
63537;DHT22;49686;51.880;5.632;2024-02-14T08:57:59;10.80;99.90
63537;DHT22;49686;51.880;5.632;2024-02-14T09:00:26;10.80;99.90
63537;DHT22;49686;51.880;5.632;2024-02-14T09:02:53;10.80;99.90
63537;DHT22;49686;51.880;5.632;2024-02-14T09:05:20;10.80;99.90
63537;DHT22;49686;51.880;5.632;2024-02-14T09:07:46;10.80;99.90
63537;DHT22;49686;51.880;5.632;2024-02-14T09:10:13;10.90;99.90
63537;DHT22;49686;51.880;5.632;2024-02-14T09:12:40;10.80;99.90
63537;DHT22;49686;51.880;5.632;2024-02-14T09:15:08;10.90;99.90
63537;DHT22;49686;51.880;5.632;2024-02-14T09:17:35;10.90;99.90
63537;DHT22;49686;51.880;5.632;2024-02-14T09:20:02;10.90;99.90
63537;DHT22;49686;51.880;5.632;2024-02-14T09:22:29;10.90;99.90
63537;DHT22;49686;51.880;5.632;2024-02-14T09:24:57;10.90;99.90
63537;DHT22;49686;51.880;5.632;2024-02-14T09:27:24;10.90;99.90
63537;DHT22;49686;51.880;5.632;2024-02-14T09:29:51;10.90;99.90
63537;DHT22;49686;51.880;5.632;2024-02-14T09:32:20;10.90;99.90
63537;DHT22;49686;51.880;5.632;2024-02-14T09:34:46;10.90;99.90
63537;DHT22;49686;51.880;5.632;2024-02-14T09:37:13;10.90;99.90
63537;DHT22;49686;51.880;5.632;2024-02-14T09:39:40;10.90;99.90
63537;DHT22;49686;51.880;5.632;2024-02-14T09:42:08;10.90;99.90
63537;DHT22;49686;51.880;5.632;2024-02-14T09:44:35;11.00;99.90
63537;DHT22;49686;51.880;5.632;2024-02-14T09:47:02;11.00;99.90
63537;DHT22;49686;51.880;5.632;2024-02-14T09:49:31;11.00;99.90
63537;DHT22;49686;51.880;5.632;2024-02-14T09:51:58;11.10;99.90
63537;DHT22;49686;51.880;5.632;2024-02-14T09:54:25;11.10;99.90
63537;DHT22;49686;51.880;5.632;2024-02-14T09:56:52;11.20;99.90
63537;DHT22;49686;51.880;5.632;2024-02-14T09:59:19;11.30;99.90
63537;DHT22;49686;51.880;5.632;2024-02-14T10:01:46;11.30;99.90
63537;DHT22;49686;51.880;5.632;2024-02-14T10:04:13;11.40;99.90
63537;DHT22;49686;51.880;5.632;2024-02-14T10:06:41;11.40;99.90
63537;DHT22;49686;51.880;5.632;2024-02-14T10:09:08;11.40;99.90
63537;DHT22;49686;51.880;5.632;2024-02-14T10:11:34;11.40;99.90
63537;DHT22;49686;51.880;5.632;2024-02-14T10:14:01;11.30;99.90
63537;DHT22;49686;51.880;5.632;2024-02-14T10:16:28;11.40;99.90
63537;DHT22;49686;51.880;5.632;2024-02-14T10:18:55;11.50;99.90
63537;DHT22;49686;51.880;5.632;2024-02-14T10:21:22;11.50;99.90
63537;DHT22;49686;51.880;5.632;2024-02-14T10:23:53;11.50;99.90
63537;DHT22;49686;51.880;5.632;2024-02-14T10:26:20;11.60;99.90
63537;DHT22;49686;51.880;5.632;2024-02-14T10:28:47;11.60;99.90
63537;DHT22;49686;51.880;5.632;2024-02-14T10:31:16;11.70;99.90
63537;DHT22;49686;51.880;5.632;2024-02-14T10:33:43;11.70;99.90
63537;DHT22;49686;51.880;5.632;2024-02-14T10:36:10;11.80;99.90
63537;DHT22;49686;51.880;5.632;2024-02-14T10:38:39;11.90;99.90
63537;DHT22;49686;51.880;5.632;2024-02-14T10:41:07;11.90;99.90
63537;DHT22;49686;51.880;5.632;2024-02-14T10:43:37;11.90;99.90
63537;DHT22;49686;51.880;5.632;2024-02-14T10:46:07;11.90;99.90
63537;DHT22;49686;51.880;5.632;2024-02-14T10:48:34;12.00;99.90
63537;DHT22;49686;51.880;5.632;2024-02-14T10:51:02;12.00;99.90
63537;DHT22;49686;51.880;5.632;2024-02-14T10:53:30;12.00;99.90
63537;DHT22;49686;51.880;5.632;2024-02-14T10:55:58;12.00;99.90
63537;DHT22;49686;51.880;5.632;2024-02-14T10:58:27;11.90;99.90
63537;DHT22;49686;51.880;5.632;2024-02-14T11:00:55;12.00;99.90
63537;DHT22;49686;51.880;5.632;2024-02-14T11:03:22;12.00;99.90
63537;DHT22;49686;51.880;5.632;2024-02-14T11:05:49;12.00;99.90
63537;DHT22;49686;51.880;5.632;2024-02-14T11:08:18;12.00;99.90
63537;DHT22;49686;51.880;5.632;2024-02-14T11:10:51;11.90;99.90
63537;DHT22;49686;51.880;5.632;2024-02-14T11:13:18;11.90;99.90
63537;DHT22;49686;51.880;5.632;2024-02-14T11:15:46;11.90;99.90
63537;DHT22;49686;51.880;5.632;2024-02-14T11:18:13;11.90;99.90
63537;DHT22;49686;51.880;5.632;2024-02-14T11:20:40;11.90;99.90
63537;DHT22;49686;51.880;5.632;2024-02-14T11:23:07;11.90;99.90
63537;DHT22;49686;51.880;5.632;2024-02-14T11:25:34;12.00;99.90
63537;DHT22;49686;51.880;5.632;2024-02-14T11:28:11;12.00;99.90
63537;DHT22;49686;51.880;5.632;2024-02-14T11:30:39;12.00;99.90
63537;DHT22;49686;51.880;5.632;2024-02-14T11:33:12;12.00;99.90
63537;DHT22;49686;51.880;5.632;2024-02-14T11:35:39;12.00;99.90
63537;DHT22;49686;51.880;5.632;2024-02-14T11:38:06;12.00;99.90
63537;DHT22;49686;51.880;5.632;2024-02-14T11:40:33;12.10;99.90
63537;DHT22;49686;51.880;5.632;2024-02-14T11:43:00;12.10;99.90
63537;DHT22;49686;51.880;5.632;2024-02-14T11:45:26;12.10;99.90
63537;DHT22;49686;51.880;5.632;2024-02-14T11:47:54;12.10;99.90
63537;DHT22;49686;51.880;5.632;2024-02-14T11:50:22;12.10;99.90
63537;DHT22;49686;51.880;5.632;2024-02-14T11:52:49;12.00;99.90
63537;DHT22;49686;51.880;5.632;2024-02-14T11:55:17;12.00;99.90
63537;DHT22;49686;51.880;5.632;2024-02-14T11:57:44;12.00;99.90
63537;DHT22;49686;51.880;5.632;2024-02-14T12:00:11;12.00;99.90
63537;DHT22;49686;51.880;5.632;2024-02-14T12:02:38;12.00;99.90
63537;DHT22;49686;51.880;5.632;2024-02-14T12:05:05;12.10;99.90
63537;DHT22;49686;51.880;5.632;2024-02-14T12:07:33;12.10;99.90
63537;DHT22;49686;51.880;5.632;2024-02-14T12:10:00;12.00;99.90
63537;DHT22;49686;51.880;5.632;2024-02-14T12:12:27;12.00;99.90
63537;DHT22;49686;51.880;5.632;2024-02-14T12:14:54;12.10;99.90
63537;DHT22;49686;51.880;5.632;2024-02-14T12:17:21;12.00;99.90
63537;DHT22;49686;51.880;5.632;2024-02-14T12:19:47;12.00;99.90
63537;DHT22;49686;51.880;5.632;2024-02-14T12:22:15;12.00;99.90
63537;DHT22;49686;51.880;5.632;2024-02-14T12:24:43;12.00;99.90
63537;DHT22;49686;51.880;5.632;2024-02-14T12:27:10;12.00;99.90
63537;DHT22;49686;51.880;5.632;2024-02-14T12:29:37;12.00;99.90
63537;DHT22;49686;51.880;5.632;2024-02-14T12:32:08;12.00;99.90
63537;DHT22;49686;51.880;5.632;2024-02-14T12:34:37;12.00;99.90
63537;DHT22;49686;51.880;5.632;2024-02-14T12:37:04;12.00;99.90
63537;DHT22;49686;51.880;5.632;2024-02-14T12:39:30;12.00;99.90
63537;DHT22;49686;51.880;5.632;2024-02-14T12:41:58;12.00;99.90
63537;DHT22;49686;51.880;5.632;2024-02-14T12:44:25;11.90;99.90
63537;DHT22;49686;51.880;5.632;2024-02-14T12:46:52;12.00;99.90
63537;DHT22;49686;51.880;5.632;2024-02-14T12:49:18;11.90;99.90
63537;DHT22;49686;51.880;5.632;2024-02-14T12:51:45;11.90;99.90
63537;DHT22;49686;51.880;5.632;2024-02-14T12:54:12;11.90;99.90
63537;DHT22;49686;51.880;5.632;2024-02-14T12:56:39;11.90;99.90
63537;DHT22;49686;51.880;5.632;2024-02-14T12:59:07;11.90;99.90
63537;DHT22;49686;51.880;5.632;2024-02-14T13:01:34;11.90;99.90
63537;DHT22;49686;51.880;5.632;2024-02-14T13:04:01;11.90;99.90
63537;DHT22;49686;51.880;5.632;2024-02-14T13:06:28;12.00;99.90
63537;DHT22;49686;51.880;5.632;2024-02-14T13:08:55;12.00;99.90
63537;DHT22;49686;51.880;5.632;2024-02-14T13:11:22;11.90;99.90
63537;DHT22;49686;51.880;5.632;2024-02-14T13:13:48;11.90;99.90
63537;DHT22;49686;51.880;5.632;2024-02-14T13:16:16;11.90;99.90
63537;DHT22;49686;51.880;5.632;2024-02-14T13:18:43;11.90;99.90
63537;DHT22;49686;51.880;5.632;2024-02-14T13:21:10;11.90;99.90
63537;DHT22;49686;51.880;5.632;2024-02-14T13:23:37;11.90;99.90
63537;DHT22;49686;51.880;5.632;2024-02-14T13:26:04;11.90;99.90
63537;DHT22;49686;51.880;5.632;2024-02-14T13:28:30;11.90;99.90
63537;DHT22;49686;51.880;5.632;2024-02-14T13:30:57;11.90;99.90
63537;DHT22;49686;51.880;5.632;2024-02-14T13:33:25;12.00;99.90
63537;DHT22;49686;51.880;5.632;2024-02-14T13:35:52;12.00;99.90
63537;DHT22;49686;51.880;5.632;2024-02-14T13:38:19;12.00;99.90
63537;DHT22;49686;51.880;5.632;2024-02-14T13:40:46;12.00;99.90
63537;DHT22;49686;51.880;5.632;2024-02-14T13:43:16;12.00;99.90
63537;DHT22;49686;51.880;5.632;2024-02-14T13:45:44;12.00;99.90
63537;DHT22;49686;51.880;5.632;2024-02-14T13:48:11;12.00;99.90
63537;DHT22;49686;51.880;5.632;2024-02-14T13:50:40;12.10;99.90
63537;DHT22;49686;51.880;5.632;2024-02-14T13:53:07;12.10;99.90
63537;DHT22;49686;51.880;5.632;2024-02-14T13:55:33;12.10;99.90
63537;DHT22;49686;51.880;5.632;2024-02-14T13:58:00;12.10;99.90
63537;DHT22;49686;51.880;5.632;2024-02-14T14:00:27;12.10;99.90
63537;DHT22;49686;51.880;5.632;2024-02-14T14:02:53;12.10;99.90
63537;DHT22;49686;51.880;5.632;2024-02-14T14:05:20;12.20;99.90
63537;DHT22;49686;51.880;5.632;2024-02-14T14:07:48;12.20;99.90
63537;DHT22;49686;51.880;5.632;2024-02-14T14:10:24;12.20;99.90
63537;DHT22;49686;51.880;5.632;2024-02-14T14:12:51;12.30;99.90
63537;DHT22;49686;51.880;5.632;2024-02-14T14:15:18;12.30;99.90
63537;DHT22;49686;51.880;5.632;2024-02-14T14:17:45;12.30;99.90
63537;DHT22;49686;51.880;5.632;2024-02-14T14:20:11;12.30;99.90
63537;DHT22;49686;51.880;5.632;2024-02-14T14:22:38;12.30;99.90
63537;DHT22;49686;51.880;5.632;2024-02-14T14:25:07;12.30;99.90
63537;DHT22;49686;51.880;5.632;2024-02-14T14:27:34;12.30;99.90
63537;DHT22;49686;51.880;5.632;2024-02-14T14:30:01;12.30;99.90
63537;DHT22;49686;51.880;5.632;2024-02-14T14:32:28;12.30;99.90
63537;DHT22;49686;51.880;5.632;2024-02-14T14:34:55;12.40;99.90
63537;DHT22;49686;51.880;5.632;2024-02-14T14:37:21;12.40;99.90
63537;DHT22;49686;51.880;5.632;2024-02-14T14:39:48;12.40;99.90
63537;DHT22;49686;51.880;5.632;2024-02-14T14:42:16;12.40;99.90
63537;DHT22;49686;51.880;5.632;2024-02-14T14:44:43;12.30;99.90
63537;DHT22;49686;51.880;5.632;2024-02-14T14:47:09;12.40;99.90
63537;DHT22;49686;51.880;5.632;2024-02-14T14:49:36;12.40;99.90
63537;DHT22;49686;51.880;5.632;2024-02-14T14:52:03;12.40;99.90
63537;DHT22;49686;51.880;5.632;2024-02-14T14:54:30;12.40;99.90
63537;DHT22;49686;51.880;5.632;2024-02-14T14:56:56;12.40;99.90
63537;DHT22;49686;51.880;5.632;2024-02-14T14:59:25;12.50;99.90
63537;DHT22;49686;51.880;5.632;2024-02-14T15:01:51;12.50;99.90
63537;DHT22;49686;51.880;5.632;2024-02-14T15:04:18;12.50;99.90
63537;DHT22;49686;51.880;5.632;2024-02-14T15:06:46;12.50;99.90
63537;DHT22;49686;51.880;5.632;2024-02-14T15:09:13;12.50;99.90
63537;DHT22;49686;51.880;5.632;2024-02-14T15:11:40;12.50;99.90
63537;DHT22;49686;51.880;5.632;2024-02-14T15:14:07;12.50;99.90
63537;DHT22;49686;51.880;5.632;2024-02-14T15:16:35;12.50;99.90
63537;DHT22;49686;51.880;5.632;2024-02-14T15:19:02;12.50;99.90
63537;DHT22;49686;51.880;5.632;2024-02-14T15:21:29;12.50;99.90
63537;DHT22;49686;51.880;5.632;2024-02-14T15:23:55;12.50;99.90
63537;DHT22;49686;51.880;5.632;2024-02-14T15:26:22;12.50;99.90
63537;DHT22;49686;51.880;5.632;2024-02-14T15:28:49;12.50;99.90
63537;DHT22;49686;51.880;5.632;2024-02-14T15:31:16;12.50;99.90
63537;DHT22;49686;51.880;5.632;2024-02-14T15:33:44;12.50;99.90